sensor_id;sensor_type;location;lat;lon;timestamp;pressure;altitude;pressure_sealevel;temperature;humidity
23446;BME280;11895;48.738;9.320;2022-08-21T00:01:40;98878.69;;;17.83;85.35
23446;BME280;11895;48.738;9.320;2022-08-21T00:04:09;98881.78;;;17.65;84.99
23446;BME280;11895;48.738;9.320;2022-08-21T00:06:40;98881.53;;;17.68;84.42
23446;BME280;11895;48.738;9.320;2022-08-21T00:09:09;98885.78;;;17.72;87.04
23446;BME280;11895;48.738;9.320;2022-08-21T00:11:38;98880.00;;;17.64;85.70
23446;BME280;11895;48.738;9.320;2022-08-21T00:14:07;98880.78;;;17.66;87.31
23446;BME280;11895;48.738;9.320;2022-08-21T00:16:36;98879.28;;;17.62;88.92
23446;BME280;11895;48.738;9.320;2022-08-21T00:19:03;98879.06;;;17.65;86.73
23446;BME280;11895;48.738;9.320;2022-08-21T00:21:30;98876.03;;;17.57;88.54
23446;BME280;11895;48.738;9.320;2022-08-21T00:23:57;98879.28;;;17.62;86.03
23446;BME280;11895;48.738;9.320;2022-08-21T00:26:25;98872.25;;;17.47;87.72
23446;BME280;11895;48.738;9.320;2022-08-21T00:28:53;98879.22;;;17.51;87.11
23446;BME280;11895;48.738;9.320;2022-08-21T00:31:21;98871.41;;;17.34;89.88
23446;BME280;11895;48.738;9.320;2022-08-21T00:33:48;98867.50;;;17.25;89.79
23446;BME280;11895;48.738;9.320;2022-08-21T00:36:15;98862.63;;;17.17;89.94
23446;BME280;11895;48.738;9.320;2022-08-21T00:38:49;98873.59;;;17.29;89.17
23446;BME280;11895;48.738;9.320;2022-08-21T00:41:16;98863.44;;;17.31;89.02
23446;BME280;11895;48.738;9.320;2022-08-21T00:44:04;98873.13;;;17.35;86.69
23446;BME280;11895;48.738;9.320;2022-08-21T00:46:33;98874.91;;;17.36;87.81
23446;BME280;11895;48.738;9.320;2022-08-21T00:49:00;98871.53;;;17.32;89.32
23446;BME280;11895;48.738;9.320;2022-08-21T00:51:35;98869.13;;;17.28;89.12
23446;BME280;11895;48.738;9.320;2022-08-21T00:54:09;98865.44;;;17.29;87.15
23446;BME280;11895;48.738;9.320;2022-08-21T00:56:48;98862.63;;;17.17;90.12
23446;BME280;11895;48.738;9.320;2022-08-21T00:59:19;98866.53;;;17.13;91.03
23446;BME280;11895;48.738;9.320;2022-08-21T01:01:48;98872.19;;;17.10;90.00
23446;BME280;11895;48.738;9.320;2022-08-21T01:04:16;98872.66;;;16.91;91.67
23446;BME280;11895;48.738;9.320;2022-08-21T01:06:44;98869.50;;;16.98;91.39
23446;BME280;11895;48.738;9.320;2022-08-21T01:09:12;98872.31;;;16.96;90.74
23446;BME280;11895;48.738;9.320;2022-08-21T01:11:41;98864.94;;;16.98;88.75
23446;BME280;11895;48.738;9.320;2022-08-21T01:14:12;98865.69;;;16.87;92.23
23446;BME280;11895;48.738;9.320;2022-08-21T01:16:42;98862.09;;;17.00;89.12
23446;BME280;11895;48.738;9.320;2022-08-21T01:19:13;98862.34;;;16.84;89.44
23446;BME280;11895;48.738;9.320;2022-08-21T01:21:41;98857.19;;;16.92;88.32
23446;BME280;11895;48.738;9.320;2022-08-21T01:24:10;98863.94;;;16.86;88.62
23446;BME280;11895;48.738;9.320;2022-08-21T01:26:38;98868.06;;;16.92;90.31
23446;BME280;11895;48.738;9.320;2022-08-21T01:29:23;98866.13;;;16.68;92.58
23446;BME280;11895;48.738;9.320;2022-08-21T01:32:08;98857.88;;;16.83;90.24
23446;BME280;11895;48.738;9.320;2022-08-21T01:34:40;98857.22;;;16.79;87.86
23446;BME280;11895;48.738;9.320;2022-08-21T01:37:09;98863.53;;;16.80;88.95
23446;BME280;11895;48.738;9.320;2022-08-21T01:39:37;98860.28;;;16.75;89.09
23446;BME280;11895;48.738;9.320;2022-08-21T01:42:05;98857.31;;;16.78;88.08
23446;BME280;11895;48.738;9.320;2022-08-21T01:44:33;98858.53;;;16.74;90.20
23446;BME280;11895;48.738;9.320;2022-08-21T01:47:04;98862.84;;;16.63;90.08
23446;BME280;11895;48.738;9.320;2022-08-21T01:49:36;98853.47;;;16.67;89.97
23446;BME280;11895;48.738;9.320;2022-08-21T01:52:05;98853.50;;;16.55;92.48
23446;BME280;11895;48.738;9.320;2022-08-21T01:54:36;98852.72;;;16.40;93.80
23446;BME280;11895;48.738;9.320;2022-08-21T01:57:04;98855.44;;;16.40;92.63
23446;BME280;11895;48.738;9.320;2022-08-21T01:59:37;98860.16;;;16.24;94.24
23446;BME280;11895;48.738;9.320;2022-08-21T02:02:04;98852.56;;;16.29;94.51
23446;BME280;11895;48.738;9.320;2022-08-21T02:04:32;98847.38;;;16.38;92.26
23446;BME280;11895;48.738;9.320;2022-08-21T02:07:00;98842.38;;;16.45;90.81
23446;BME280;11895;48.738;9.320;2022-08-21T02:09:28;98847.81;;;16.45;91.59
23446;BME280;11895;48.738;9.320;2022-08-21T02:11:55;98838.56;;;16.35;93.00
23446;BME280;11895;48.738;9.320;2022-08-21T02:14:23;98835.41;;;16.41;89.43
23446;BME280;11895;48.738;9.320;2022-08-21T02:16:58;98844.88;;;16.48;84.81
23446;BME280;11895;48.738;9.320;2022-08-21T02:19:34;98844.13;;;16.46;87.74
23446;BME280;11895;48.738;9.320;2022-08-21T02:22:09;98839.78;;;16.56;87.38
23446;BME280;11895;48.738;9.320;2022-08-21T02:24:38;98837.69;;;16.47;86.04
23446;BME280;11895;48.738;9.320;2022-08-21T02:27:24;98841.53;;;16.44;88.50
23446;BME280;11895;48.738;9.320;2022-08-21T02:29:57;98838.34;;;16.38;89.04
23446;BME280;11895;48.738;9.320;2022-08-21T02:32:25;98838.25;;;16.39;87.38
23446;BME280;11895;48.738;9.320;2022-08-21T02:34:52;98844.56;;;16.40;87.39
23446;BME280;11895;48.738;9.320;2022-08-21T02:37:19;98833.88;;;16.37;87.62
23446;BME280;11895;48.738;9.320;2022-08-21T02:39:46;98833.34;;;16.32;88.81
23446;BME280;11895;48.738;9.320;2022-08-21T02:42:14;98839.22;;;16.26;89.32
23446;BME280;11895;48.738;9.320;2022-08-21T02:44:41;98839.97;;;16.28;86.86
23446;BME280;11895;48.738;9.320;2022-08-21T02:47:08;98840.34;;;16.09;90.21
23446;BME280;11895;48.738;9.320;2022-08-21T02:49:35;98835.47;;;16.01;90.48
23446;BME280;11895;48.738;9.320;2022-08-21T02:52:02;98842.88;;;16.12;88.36
23446;BME280;11895;48.738;9.320;2022-08-21T02:54:32;98847.34;;;16.13;85.86
23446;BME280;11895;48.738;9.320;2022-08-21T02:56:59;98842.00;;;16.11;85.53
23446;BME280;11895;48.738;9.320;2022-08-21T02:59:26;98840.03;;;16.13;86.44
23446;BME280;11895;48.738;9.320;2022-08-21T03:01:53;98841.22;;;16.09;86.71
23446;BME280;11895;48.738;9.320;2022-08-21T03:04:22;98841.13;;;16.11;86.62
23446;BME280;11895;48.738;9.320;2022-08-21T03:06:49;98839.72;;;16.05;85.21
23446;BME280;11895;48.738;9.320;2022-08-21T03:09:16;98844.94;;;16.08;83.72
23446;BME280;11895;48.738;9.320;2022-08-21T03:11:43;98840.47;;;16.07;85.83
23446;BME280;11895;48.738;9.320;2022-08-21T03:14:10;98839.91;;;16.02;85.06
23446;BME280;11895;48.738;9.320;2022-08-21T03:16:37;98837.94;;;16.04;83.65
23446;BME280;11895;48.738;9.320;2022-08-21T03:19:05;98836.03;;;16.06;84.71
23446;BME280;11895;48.738;9.320;2022-08-21T03:21:32;98838.19;;;16.01;84.55
23446;BME280;11895;48.738;9.320;2022-08-21T03:23:59;98839.47;;;15.96;86.75
23446;BME280;11895;48.738;9.320;2022-08-21T03:26:30;98840.59;;;15.79;88.92
23446;BME280;11895;48.738;9.320;2022-08-21T03:28:58;98844.06;;;15.81;88.37
23446;BME280;11895;48.738;9.320;2022-08-21T03:31:25;98854.13;;;15.52;91.07
23446;BME280;11895;48.738;9.320;2022-08-21T03:33:58;98842.88;;;15.72;88.66
23446;BME280;11895;48.738;9.320;2022-08-21T03:36:25;98842.41;;;15.65;88.00
23446;BME280;11895;48.738;9.320;2022-08-21T03:38:53;98849.19;;;15.73;87.04
23446;BME280;11895;48.738;9.320;2022-08-21T03:41:20;98846.72;;;15.82;86.52
23446;BME280;11895;48.738;9.320;2022-08-21T03:43:47;98840.91;;;15.74;85.03
23446;BME280;11895;48.738;9.320;2022-08-21T03:46:14;98855.03;;;15.66;87.83
23446;BME280;11895;48.738;9.320;2022-08-21T03:48:41;98858.59;;;15.67;87.33
23446;BME280;11895;48.738;9.320;2022-08-21T03:51:08;98855.03;;;15.66;83.15
23446;BME280;11895;48.738;9.320;2022-08-21T03:53:36;98860.22;;;15.70;87.42
23446;BME280;11895;48.738;9.320;2022-08-21T03:56:04;98860.22;;;15.70;85.90
23446;BME280;11895;48.738;9.320;2022-08-21T03:58:32;98858.50;;;15.68;87.43
23446;BME280;11895;48.738;9.320;2022-08-21T04:01:00;98858.88;;;15.62;86.57
23446;BME280;11895;48.738;9.320;2022-08-21T04:03:29;98866.16;;;15.62;87.80
23446;BME280;11895;48.738;9.320;2022-08-21T04:05:56;98863.94;;;15.54;86.00
23446;BME280;11895;48.738;9.320;2022-08-21T04:08:23;98857.53;;;15.55;88.38
23446;BME280;11895;48.738;9.320;2022-08-21T04:10:53;98861.03;;;15.57;89.14
23446;BME280;11895;48.738;9.320;2022-08-21T04:13:22;98858.63;;;15.53;84.51
23446;BME280;11895;48.738;9.320;2022-08-21T04:15:50;98867.63;;;15.53;86.78
23446;BME280;11895;48.738;9.320;2022-08-21T04:18:17;98864.06;;;15.53;83.22
23446;BME280;11895;48.738;9.320;2022-08-21T04:20:46;98868.78;;;15.49;83.71
23446;BME280;11895;48.738;9.320;2022-08-21T04:23:20;98867.44;;;15.42;87.00
23446;BME280;11895;48.738;9.320;2022-08-21T04:25:52;98871.91;;;15.43;86.99
23446;BME280;11895;48.738;9.320;2022-08-21T04:28:21;98873.84;;;15.41;87.58
23446;BME280;11895;48.738;9.320;2022-08-21T04:30:56;98884.94;;;15.38;86.51
23446;BME280;11895;48.738;9.320;2022-08-21T04:33:23;98880.84;;;15.31;89.74
23446;BME280;11895;48.738;9.320;2022-08-21T04:35:51;98887.06;;;15.33;88.34
23446;BME280;11895;48.738;9.320;2022-08-21T04:38:18;98883.25;;;15.35;88.08
23446;BME280;11895;48.738;9.320;2022-08-21T04:40:47;98893.06;;;15.38;87.12
23446;BME280;11895;48.738;9.320;2022-08-21T04:43:15;98889.38;;;15.39;83.01
23446;BME280;11895;48.738;9.320;2022-08-21T04:45:46;98892.44;;;15.47;83.20
23446;BME280;11895;48.738;9.320;2022-08-21T04:48:17;98897.13;;;15.45;87.75
23446;BME280;11895;48.738;9.320;2022-08-21T04:50:56;98897.41;;;15.40;87.62
23446;BME280;11895;48.738;9.320;2022-08-21T04:56:15;98902.72;;;15.42;87.06
23446;BME280;11895;48.738;9.320;2022-08-21T04:58:48;98906.81;;;15.49;82.40
23446;BME280;11895;48.738;9.320;2022-08-21T05:01:20;98902.72;;;15.42;90.58
23446;BME280;11895;48.738;9.320;2022-08-21T05:03:50;98910.97;;;15.55;79.32
23446;BME280;11895;48.738;9.320;2022-08-21T05:06:24;98907.56;;;15.65;85.92
23446;BME280;11895;48.738;9.320;2022-08-21T05:08:53;98907.19;;;15.72;78.51
23446;BME280;11895;48.738;9.320;2022-08-21T05:11:29;98908.50;;;15.79;87.46
23446;BME280;11895;48.738;9.320;2022-08-21T05:13:58;98906.78;;;15.78;85.90
23446;BME280;11895;48.738;9.320;2022-08-21T05:16:25;98912.25;;;15.90;86.14
23446;BME280;11895;48.738;9.320;2022-08-21T05:19:05;98906.72;;;15.92;88.78
23446;BME280;11895;48.738;9.320;2022-08-21T05:21:34;98907.78;;;15.89;89.40
23446;BME280;11895;48.738;9.320;2022-08-21T05:24:02;98918.34;;;15.94;89.53
23446;BME280;11895;48.738;9.320;2022-08-21T05:26:30;98907.84;;;16.02;88.40
23446;BME280;11895;48.738;9.320;2022-08-21T05:28:58;98919.31;;;15.93;90.96
23446;BME280;11895;48.738;9.320;2022-08-21T05:31:25;98915.00;;;16.03;89.70
23446;BME280;11895;48.738;9.320;2022-08-21T05:33:52;98924.28;;;16.13;88.38
23446;BME280;11895;48.738;9.320;2022-08-21T05:36:21;98917.66;;;16.17;87.30
23446;BME280;11895;48.738;9.320;2022-08-21T05:38:49;98923.09;;;15.90;91.02
23446;BME280;11895;48.738;9.320;2022-08-21T05:41:17;98924.19;;;15.88;93.41
23446;BME280;11895;48.738;9.320;2022-08-21T05:43:44;98929.47;;;16.04;93.41
23446;BME280;11895;48.738;9.320;2022-08-21T05:46:11;98922.28;;;16.30;91.04
23446;BME280;11895;48.738;9.320;2022-08-21T05:48:38;98926.88;;;16.42;88.69
23446;BME280;11895;48.738;9.320;2022-08-21T05:51:11;98916.34;;;16.50;89.01
23446;BME280;11895;48.738;9.320;2022-08-21T05:53:40;98926.34;;;16.62;80.20
23446;BME280;11895;48.738;9.320;2022-08-21T05:56:09;98921.84;;;16.76;85.99
23446;BME280;11895;48.738;9.320;2022-08-21T05:58:38;98920.84;;;16.77;89.17
23446;BME280;11895;48.738;9.320;2022-08-21T06:01:05;98923.28;;;16.94;81.32
23446;BME280;11895;48.738;9.320;2022-08-21T06:03:36;98921.19;;;17.10;78.60
23446;BME280;11895;48.738;9.320;2022-08-21T06:06:05;98924.25;;;17.18;86.88
23446;BME280;11895;48.738;9.320;2022-08-21T06:08:32;98920.28;;;17.35;85.38
23446;BME280;11895;48.738;9.320;2022-08-21T06:11:02;98915.28;;;17.42;83.80
23446;BME280;11895;48.738;9.320;2022-08-21T06:13:30;98917.53;;;17.61;84.10
23446;BME280;11895;48.738;9.320;2022-08-21T06:16:11;98920.88;;;17.64;81.09
23446;BME280;11895;48.738;9.320;2022-08-21T06:18:43;98917.88;;;17.56;85.66
23446;BME280;11895;48.738;9.320;2022-08-21T06:21:12;98921.75;;;17.78;80.01
23446;BME280;11895;48.738;9.320;2022-08-21T06:23:41;98924.53;;;17.89;78.15
23446;BME280;11895;48.738;9.320;2022-08-21T06:26:13;98922.63;;;18.02;82.50
23446;BME280;11895;48.738;9.320;2022-08-21T06:28:54;98919.00;;;17.90;81.10
23446;BME280;11895;48.738;9.320;2022-08-21T06:31:33;98911.47;;;17.94;82.95
23446;BME280;11895;48.738;9.320;2022-08-21T06:34:12;98921.25;;;17.96;83.17
23446;BME280;11895;48.738;9.320;2022-08-21T06:36:54;98911.16;;;18.10;77.82
23446;BME280;11895;48.738;9.320;2022-08-21T06:39:37;98911.50;;;18.29;78.80
23446;BME280;11895;48.738;9.320;2022-08-21T06:42:21;98907.66;;;18.32;82.00
23446;BME280;11895;48.738;9.320;2022-08-21T06:44:56;98911.38;;;18.66;79.90
23446;BME280;11895;48.738;9.320;2022-08-21T06:47:24;98913.34;;;18.64;80.30
23446;BME280;11895;48.738;9.320;2022-08-21T06:49:51;98910.22;;;18.81;78.24
23446;BME280;11895;48.738;9.320;2022-08-21T06:52:19;98912.19;;;18.90;77.80
23446;BME280;11895;48.738;9.320;2022-08-21T06:54:46;98911.31;;;18.90;76.91
23446;BME280;11895;48.738;9.320;2022-08-21T06:57:19;98914.97;;;19.24;77.37
23446;BME280;11895;48.738;9.320;2022-08-21T06:59:56;98903.75;;;18.82;77.73
23446;BME280;11895;48.738;9.320;2022-08-21T07:02:39;98909.13;;;19.29;75.09
23446;BME280;11895;48.738;9.320;2022-08-21T07:05:08;98905.66;;;19.38;75.37
23446;BME280;11895;48.738;9.320;2022-08-21T07:15:49;98900.47;;;20.12;72.60
23446;BME280;11895;48.738;9.320;2022-08-21T08:10:41;98872.94;;;22.39;62.88
23446;BME280;11895;48.738;9.320;2022-08-21T08:13:10;98862.94;;;22.57;63.67
23446;BME280;11895;48.738;9.320;2022-08-21T08:19:01;98867.25;;;22.89;59.40
23446;BME280;11895;48.738;9.320;2022-08-21T08:21:30;98861.78;;;22.69;58.66
23446;BME280;11895;48.738;9.320;2022-08-21T08:24:00;98857.72;;;22.73;57.71
23446;BME280;11895;48.738;9.320;2022-08-21T08:26:46;98861.41;;;23.11;55.50
23446;BME280;11895;48.738;9.320;2022-08-21T08:29:21;98855.75;;;23.22;57.51
23446;BME280;11895;48.738;9.320;2022-08-21T08:31:48;98849.13;;;23.43;55.32
23446;BME280;11895;48.738;9.320;2022-08-21T08:34:17;98851.38;;;23.57;57.59
23446;BME280;11895;48.738;9.320;2022-08-21T08:36:51;98846.59;;;23.31;56.27
23446;BME280;11895;48.738;9.320;2022-08-21T08:39:19;98845.69;;;23.03;55.63
23446;BME280;11895;48.738;9.320;2022-08-21T08:42:07;98837.25;;;22.48;56.57
23446;BME280;11895;48.738;9.320;2022-08-21T08:45:06;98829.22;;;22.94;57.10
23446;BME280;11895;48.738;9.320;2022-08-21T08:47:39;98832.81;;;23.41;55.33
23446;BME280;11895;48.738;9.320;2022-08-21T08:52:59;98829.53;;;23.65;55.34
23446;BME280;11895;48.738;9.320;2022-08-21T08:55:35;98824.91;;;24.01;54.47
23446;BME280;11895;48.738;9.320;2022-08-21T08:58:04;98834.00;;;23.66;54.42
23446;BME280;11895;48.738;9.320;2022-08-21T09:00:32;98826.94;;;23.81;53.77
23446;BME280;11895;48.738;9.320;2022-08-21T09:03:01;98835.34;;;23.15;55.51
23446;BME280;11895;48.738;9.320;2022-08-21T09:09:20;98819.25;;;24.03;54.50
23446;BME280;11895;48.738;9.320;2022-08-21T09:26:20;98805.97;;;24.52;50.14
23446;BME280;11895;48.738;9.320;2022-08-21T09:28:53;98809.63;;;24.60;49.15
23446;BME280;11895;48.738;9.320;2022-08-21T09:31:28;98800.25;;;25.23;50.46
23446;BME280;11895;48.738;9.320;2022-08-21T09:34:07;98796.59;;;25.49;48.70
23446;BME280;11895;48.738;9.320;2022-08-21T09:36:39;98794.91;;;25.72;49.63
23446;BME280;11895;48.738;9.320;2022-08-21T09:39:12;98796.97;;;25.20;47.20
23446;BME280;11895;48.738;9.320;2022-08-21T09:41:40;98797.13;;;25.18;47.50
23446;BME280;11895;48.738;9.320;2022-08-21T09:44:08;98798.75;;;25.79;47.30
23446;BME280;11895;48.738;9.320;2022-08-21T09:46:35;98792.06;;;25.40;47.17
23446;BME280;11895;48.738;9.320;2022-08-21T09:49:03;98793.56;;;25.76;46.37
23446;BME280;11895;48.738;9.320;2022-08-21T09:51:35;98787.41;;;25.99;45.97
23446;BME280;11895;48.738;9.320;2022-08-21T09:56:39;98784.13;;;25.87;45.51
23446;BME280;11895;48.738;9.320;2022-08-21T09:59:46;98780.09;;;25.73;44.62
23446;BME280;11895;48.738;9.320;2022-08-21T10:02:35;98787.47;;;26.31;45.11
23446;BME280;11895;48.738;9.320;2022-08-21T10:05:04;98779.19;;;26.56;43.67
23446;BME280;11895;48.738;9.320;2022-08-21T10:07:37;98776.75;;;26.28;42.58
23446;BME280;11895;48.738;9.320;2022-08-21T10:15:51;98766.47;;;27.02;42.06
23446;BME280;11895;48.738;9.320;2022-08-21T10:18:41;98767.00;;;27.06;40.78
23446;BME280;11895;48.738;9.320;2022-08-21T10:29:50;98765.22;;;27.29;40.94
23446;BME280;11895;48.738;9.320;2022-08-21T10:35:57;98756.66;;;27.86;41.74
23446;BME280;11895;48.738;9.320;2022-08-21T10:38:49;98751.47;;;28.29;41.11
23446;BME280;11895;48.738;9.320;2022-08-21T10:42:03;98753.44;;;27.98;38.00
23446;BME280;11895;48.738;9.320;2022-08-21T10:47:19;98748.47;;;27.62;36.27
23446;BME280;11895;48.738;9.320;2022-08-21T10:53:08;98740.19;;;28.39;35.54
23446;BME280;11895;48.738;9.320;2022-08-21T10:55:55;98737.88;;;27.74;37.23
23446;BME280;11895;48.738;9.320;2022-08-21T10:58:34;98734.25;;;28.19;37.60
23446;BME280;11895;48.738;9.320;2022-08-21T11:01:15;98733.78;;;28.38;38.02
23446;BME280;11895;48.738;9.320;2022-08-21T11:03:53;98736.13;;;28.94;37.55
23446;BME280;11895;48.738;9.320;2022-08-21T11:06:37;98734.25;;;28.94;35.64
23446;BME280;11895;48.738;9.320;2022-08-21T11:09:17;98738.34;;;28.84;36.27
23446;BME280;11895;48.738;9.320;2022-08-21T11:14:54;98726.88;;;28.72;37.39
23446;BME280;11895;48.738;9.320;2022-08-21T11:18:22;98723.66;;;29.13;37.09
23446;BME280;11895;48.738;9.320;2022-08-21T11:20:59;98715.84;;;29.38;36.32
23446;BME280;11895;48.738;9.320;2022-08-21T11:23:43;98717.63;;;28.94;36.08
23446;BME280;11895;48.738;9.320;2022-08-21T11:33:31;98726.50;;;29.19;35.75
23446;BME280;11895;48.738;9.320;2022-08-21T11:39:34;98713.97;;;29.09;36.45
23446;BME280;11895;48.738;9.320;2022-08-21T12:01:31;98693.38;;;29.33;33.55
23446;BME280;11895;48.738;9.320;2022-08-21T12:07:39;98694.88;;;31.55;32.41
23446;BME280;11895;48.738;9.320;2022-08-21T12:10:19;98692.88;;;32.03;30.83
23446;BME280;11895;48.738;9.320;2022-08-21T12:13:07;98689.75;;;31.71;29.78
23446;BME280;11895;48.738;9.320;2022-08-21T12:15:40;98699.09;;;32.78;28.76
23446;BME280;11895;48.738;9.320;2022-08-21T12:18:30;98700.22;;;33.55;27.58
23446;BME280;11895;48.738;9.320;2022-08-21T12:27:26;98695.91;;;37.55;24.12
23446;BME280;11895;48.738;9.320;2022-08-21T12:30:00;98693.25;;;38.68;22.83
23446;BME280;11895;48.738;9.320;2022-08-21T12:32:44;98691.63;;;39.44;21.91
23446;BME280;11895;48.738;9.320;2022-08-21T12:35:24;98688.22;;;40.35;21.56
23446;BME280;11895;48.738;9.320;2022-08-21T12:38:00;98677.50;;;41.01;20.24
23446;BME280;11895;48.738;9.320;2022-08-21T12:40:40;98682.44;;;40.20;20.54
23446;BME280;11895;48.738;9.320;2022-08-21T12:43:15;98674.09;;;38.48;22.38
23446;BME280;11895;48.738;9.320;2022-08-21T12:45:49;98661.53;;;37.65;22.51
23446;BME280;11895;48.738;9.320;2022-08-21T12:48:29;98670.16;;;39.38;21.82
23446;BME280;11895;48.738;9.320;2022-08-21T12:51:11;98660.63;;;37.88;21.76
23446;BME280;11895;48.738;9.320;2022-08-21T12:53:48;98658.78;;;38.27;21.45
23446;BME280;11895;48.738;9.320;2022-08-21T12:56:23;98654.47;;;39.69;20.77
23446;BME280;11895;48.738;9.320;2022-08-21T12:59:00;98652.63;;;41.03;19.58
23446;BME280;11895;48.738;9.320;2022-08-21T13:04:11;98650.53;;;42.14;17.46
23446;BME280;11895;48.738;9.320;2022-08-21T13:06:45;98650.53;;;38.71;18.82
23446;BME280;11895;48.738;9.320;2022-08-21T13:09:16;98648.59;;;36.88;19.33
23446;BME280;11895;48.738;9.320;2022-08-21T13:11:47;98645.31;;;38.96;17.80
23446;BME280;11895;48.738;9.320;2022-08-21T13:14:26;98643.97;;;37.58;19.07
23446;BME280;11895;48.738;9.320;2022-08-21T13:17:24;98644.34;;;36.97;19.39
23446;BME280;11895;48.738;9.320;2022-08-21T13:20:23;98646.84;;;38.87;19.05
23446;BME280;11895;48.738;9.320;2022-08-21T13:22:51;98653.47;;;41.04;18.06
23446;BME280;11895;48.738;9.320;2022-08-21T13:25:21;98652.81;;;42.12;16.14
23446;BME280;11895;48.738;9.320;2022-08-21T13:28:09;98650.84;;;42.99;14.35
23446;BME280;11895;48.738;9.320;2022-08-21T13:30:42;98648.06;;;39.52;15.51
23446;BME280;11895;48.738;9.320;2022-08-21T13:33:15;98647.34;;;39.62;15.95
23446;BME280;11895;48.738;9.320;2022-08-21T13:38:30;98641.47;;;38.18;18.59
23446;BME280;11895;48.738;9.320;2022-08-21T13:41:05;98638.88;;;40.11;16.49
23446;BME280;11895;48.738;9.320;2022-08-21T13:43:45;98643.41;;;40.12;17.05
23446;BME280;11895;48.738;9.320;2022-08-21T13:46:15;98637.97;;;39.34;17.31
23446;BME280;11895;48.738;9.320;2022-08-21T13:48:44;98634.94;;;40.12;15.63
23446;BME280;11895;48.738;9.320;2022-08-21T13:51:11;98631.59;;;42.15;16.03
23446;BME280;11895;48.738;9.320;2022-08-21T13:56:42;98631.06;;;42.43;15.45
23446;BME280;11895;48.738;9.320;2022-08-21T13:59:11;98631.56;;;43.86;15.16
23446;BME280;11895;48.738;9.320;2022-08-21T14:01:49;98640.56;;;43.99;14.50
23446;BME280;11895;48.738;9.320;2022-08-21T14:04:51;98626.59;;;44.07;13.71
23446;BME280;11895;48.738;9.320;2022-08-21T14:07:35;98626.50;;;42.78;13.98
23446;BME280;11895;48.738;9.320;2022-08-21T14:10:23;98619.13;;;40.43;15.95
23446;BME280;11895;48.738;9.320;2022-08-21T14:12:58;98627.59;;;42.00;15.31
23446;BME280;11895;48.738;9.320;2022-08-21T14:15:31;98622.34;;;41.41;15.44
23446;BME280;11895;48.738;9.320;2022-08-21T14:18:16;98621.66;;;42.89;14.73
23446;BME280;11895;48.738;9.320;2022-08-21T14:20:45;98626.50;;;42.78;14.92
23446;BME280;11895;48.738;9.320;2022-08-21T14:23:25;98623.31;;;43.85;14.47
23446;BME280;11895;48.738;9.320;2022-08-21T14:25:59;98621.38;;;44.20;14.36
23446;BME280;11895;48.738;9.320;2022-08-21T14:28:34;98611.03;;;44.73;13.54
23446;BME280;11895;48.738;9.320;2022-08-21T14:31:29;98612.06;;;45.97;13.34
23446;BME280;11895;48.738;9.320;2022-08-21T14:33:58;98617.84;;;45.92;14.00
23446;BME280;11895;48.738;9.320;2022-08-21T14:36:26;98618.34;;;45.08;13.29
23446;BME280;11895;48.738;9.320;2022-08-21T14:38:53;98608.34;;;44.82;13.77
23446;BME280;11895;48.738;9.320;2022-08-21T14:41:23;98608.19;;;43.50;14.49
23446;BME280;11895;48.738;9.320;2022-08-21T14:43:53;98601.97;;;44.95;14.41
23446;BME280;11895;48.738;9.320;2022-08-21T14:46:33;98600.66;;;44.53;14.08
23446;BME280;11895;48.738;9.320;2022-08-21T14:49:05;98598.38;;;45.13;14.25
23446;BME280;11895;48.738;9.320;2022-08-21T14:51:32;98598.25;;;44.71;13.62
23446;BME280;11895;48.738;9.320;2022-08-21T14:53:59;98593.41;;;44.71;13.33
23446;BME280;11895;48.738;9.320;2022-08-21T14:56:26;98592.56;;;45.24;13.81
23446;BME280;11895;48.738;9.320;2022-08-21T14:59:00;98592.09;;;45.17;13.91
23446;BME280;11895;48.738;9.320;2022-08-21T15:01:32;98589.16;;;44.00;13.80
23446;BME280;11895;48.738;9.320;2022-08-21T15:04:02;98588.56;;;45.01;13.84
23446;BME280;11895;48.738;9.320;2022-08-21T15:06:30;98579.38;;;45.09;13.46
23446;BME280;11895;48.738;9.320;2022-08-21T15:08:58;98580.66;;;45.22;13.33
23446;BME280;11895;48.738;9.320;2022-08-21T15:11:25;98574.34;;;43.04;15.27
23446;BME280;11895;48.738;9.320;2022-08-21T15:14:12;98572.88;;;44.50;14.34
23446;BME280;11895;48.738;9.320;2022-08-21T15:16:46;98572.72;;;45.19;13.88
23446;BME280;11895;48.738;9.320;2022-08-21T15:19:14;98575.31;;;44.62;13.47
23446;BME280;11895;48.738;9.320;2022-08-21T15:21:42;98568.72;;;45.44;12.69
23446;BME280;11895;48.738;9.320;2022-08-21T15:24:10;98563.84;;;44.96;13.14
23446;BME280;11895;48.738;9.320;2022-08-21T15:26:37;98566.47;;;45.41;13.23
23446;BME280;11895;48.738;9.320;2022-08-21T15:29:06;98556.06;;;44.20;14.59
23446;BME280;11895;48.738;9.320;2022-08-21T15:31:34;98558.19;;;44.96;12.93
23446;BME280;11895;48.738;9.320;2022-08-21T15:34:02;98552.94;;;45.08;13.41
23446;BME280;11895;48.738;9.320;2022-08-21T15:36:30;98563.31;;;45.85;12.63
23446;BME280;11895;48.738;9.320;2022-08-21T15:38:57;98568.72;;;45.44;12.56
23446;BME280;11895;48.738;9.320;2022-08-21T15:41:24;98554.47;;;46.38;12.97
23446;BME280;11895;48.738;9.320;2022-08-21T15:43:52;98554.13;;;46.58;12.66
23446;BME280;11895;48.738;9.320;2022-08-21T15:46:20;98553.03;;;46.22;13.33
23446;BME280;11895;48.738;9.320;2022-08-21T15:48:48;98546.00;;;44.37;13.58
23446;BME280;11895;48.738;9.320;2022-08-21T15:51:16;98544.69;;;44.30;13.54
23446;BME280;11895;48.738;9.320;2022-08-21T15:53:44;98544.53;;;44.98;13.66
23446;BME280;11895;48.738;9.320;2022-08-21T15:57:18;59048.13;;;-144.85;100.00
23446;BME280;11895;48.738;9.320;2022-08-21T15:59:52;98535.09;;;44.79;13.07
23446;BME280;11895;48.738;9.320;2022-08-21T16:02:24;98534.81;;;45.04;14.32
23446;BME280;11895;48.738;9.320;2022-08-21T16:04:53;98522.38;;;45.43;13.28
23446;BME280;11895;48.738;9.320;2022-08-21T16:07:22;98540.78;;;45.27;13.76
23446;BME280;11895;48.738;9.320;2022-08-21T16:09:49;98533.63;;;44.52;13.75
23446;BME280;11895;48.738;9.320;2022-08-21T16:12:44;98536.34;;;43.10;15.31
23446;BME280;11895;48.738;9.320;2022-08-21T16:15:16;98523.88;;;40.28;17.71